Time;durP1;ratioP1;P1;durP2;ratioP2;P2;SDS_P1;SDS_P2;PMS_P1;PMS_P2;Temp;Humidity;BMP_temperature;BMP_pressure;BME280_temperature;BME280_humidity;BME280_pressure;Samples;Min_cycle;Max_cycle;Signal;HPM_P1;HPM_P2
2023/01/02 00:02:16;;;;;;;4.63;2.00;;;10.60;99.90;;;;;;5030128;28;20200;-66
2023/01/02 00:04:43;;;;;;;5.68;2.42;;;10.60;99.90;;;;;;5038066;28;20200;-67
2023/01/02 00:07:10;;;;;;;5.00;1.90;;;10.50;99.90;;;;;;4990736;28;20232;-67
2023/01/02 00:09:38;;;;;;;3.42;2.13;;;10.60;99.90;;;;;;5040245;28;20199;-66
2023/01/02 00:12:05;;;;;;;3.47;2.05;;;10.60;99.90;;;;;;5021827;28;20776;-66
2023/01/02 00:14:32;;;;;;;7.50;2.35;;;10.50;99.90;;;;;;5035690;28;20934;-66
2023/01/02 00:16:59;;;;;;;8.20;2.47;;;10.50;99.90;;;;;;5029787;28;20199;-66
2023/01/02 00:19:26;;;;;;;5.22;1.80;;;10.50;99.90;;;;;;5033685;28;21094;-66
2023/01/02 00:21:53;;;;;;;8.82;2.40;;;10.50;99.90;;;;;;5009248;28;20491;-66
2023/01/02 00:24:20;;;;;;;3.95;1.83;;;10.60;99.90;;;;;;5026940;28;20410;-66
2023/01/02 00:26:48;;;;;;;3.10;1.63;;;10.60;99.90;;;;;;5039039;28;20248;-66
2023/01/02 00:29:15;;;;;;;4.88;2.20;;;10.50;99.90;;;;;;5024663;28;20200;-66
2023/01/02 00:31:42;;;;;;;3.22;1.95;;;10.50;99.90;;;;;;5027714;28;20575;-66
2023/01/02 00:34:09;;;;;;;7.55;2.40;;;10.50;99.90;;;;;;5033182;28;20209;-66
2023/01/02 00:36:36;;;;;;;4.82;2.10;;;10.50;99.90;;;;;;4998060;28;20461;-66
2023/01/02 00:39:02;;;;;;;6.45;2.78;;;10.50;99.90;;;;;;5017528;28;20310;-66
2023/01/02 00:41:29;;;;;;;4.45;2.60;;;10.50;99.90;;;;;;5037069;28;20310;-67
2023/01/02 00:43:57;;;;;;;7.20;2.85;;;10.60;99.90;;;;;;5022882;28;20207;-66
2023/01/02 00:46:24;;;;;;;6.65;2.38;;;10.60;99.90;;;;;;5025973;28;21240;-66
2023/01/02 00:48:51;;;;;;;7.10;2.45;;;10.60;99.90;;;;;;5039519;28;20223;-66
2023/01/02 00:51:18;;;;;;;3.20;2.10;;;10.60;99.90;;;;;;5010437;28;20706;-67
2023/01/02 00:53:45;;;;;;;3.08;2.03;;;10.60;99.90;;;;;;5025443;28;20201;-66
2023/01/02 00:56:12;;;;;;;5.95;2.53;;;10.60;99.90;;;;;;5033542;28;20205;-66
2023/01/02 00:58:39;;;;;;;3.13;2.67;;;10.60;99.90;;;;;;5024837;28;20911;-67
2023/01/02 01:01:07;;;;;;;6.65;2.38;;;10.60;99.90;;;;;;5033945;28;20544;-66
2023/01/02 01:03:34;;;;;;;4.78;2.28;;;10.70;99.90;;;;;;5036359;28;20231;-67
2023/01/02 01:06:07;;;;;;;3.67;2.55;;;10.60;99.90;;;;;;5044388;28;20227;-66
2023/01/02 01:08:34;;;;;;;9.18;2.65;;;10.70;99.90;;;;;;5013241;28;20971;-66
2023/01/02 01:11:05;;;;;;;4.32;2.45;;;10.70;99.90;;;;;;5033542;28;20213;-66
2023/01/02 01:13:32;;;;;;;7.07;3.00;;;10.70;99.90;;;;;;5022892;28;20205;-67
2023/01/02 01:16:04;;;;;;;3.40;2.55;;;10.70;99.90;;;;;;5023593;28;20201;-67
2023/01/02 01:18:32;;;;;;;4.30;2.40;;;10.80;99.90;;;;;;5035564;28;20405;-66
2023/01/02 01:20:59;;;;;;;6.60;2.78;;;10.80;99.90;;;;;;5044887;28;20562;-65
2023/01/02 01:23:26;;;;;;;7.38;2.40;;;10.70;99.90;;;;;;5007709;28;20681;-67
2023/01/02 01:25:52;;;;;;;4.60;2.53;;;10.80;99.90;;;;;;5033040;28;20802;-67
2023/01/02 01:28:19;;;;;;;5.55;2.80;;;10.80;99.90;;;;;;5040600;28;20557;-66
2023/01/02 01:30:46;;;;;;;7.15;2.85;;;10.80;99.90;;;;;;5031367;28;20205;-67
2023/01/02 01:33:13;;;;;;;5.00;2.60;;;10.80;99.90;;;;;;5035575;28;20204;-66
2023/01/02 01:35:41;;;;;;;6.22;3.00;;;10.80;99.90;;;;;;5043294;28;20204;-66
2023/01/02 01:38:08;;;;;;;5.40;2.72;;;10.80;99.90;;;;;;5022923;28;20552;-66
2023/01/02 01:40:39;;;;;;;8.07;2.83;;;10.80;99.90;;;;;;5016188;28;20690;-67
2023/01/02 01:43:12;;;;;;;8.95;3.53;;;10.90;99.90;;;;;;5038998;28;20573;-66
2023/01/02 01:45:42;;;;;;;5.03;3.38;;;10.90;99.90;;;;;;5028287;28;20212;-67
2023/01/02 01:48:12;;;;;;;8.23;3.63;;;11.00;99.90;;;;;;5043773;28;20644;-67
2023/01/02 01:50:42;;;;;;;11.52;3.20;;;11.00;99.90;;;;;;5036426;28;20761;-66
2023/01/02 01:53:14;;;;;;;7.78;2.92;;;11.00;99.90;;;;;;5038618;28;20630;-66
2023/01/02 01:55:44;;;;;;;5.22;3.10;;;10.90;99.90;;;;;;4996189;28;20245;-67
2023/01/02 01:58:15;;;;;;;6.93;3.70;;;11.00;99.90;;;;;;5039022;28;20194;-67
2023/01/02 02:00:43;;;;;;;5.03;3.58;;;11.00;99.90;;;;;;5026634;28;20205;-67
2023/01/02 02:03:16;;;;;;;6.82;3.03;;;11.00;99.90;;;;;;5043160;28;20193;-67
2023/01/02 02:05:46;;;;;;;4.95;3.10;;;11.00;99.90;;;;;;5041194;28;20409;-66
2023/01/02 02:08:17;;;;;;;7.93;3.55;;;11.00;99.90;;;;;;5046911;28;20193;-66
2023/01/02 02:10:45;;;;;;;7.25;3.40;;;11.00;99.90;;;;;;5004068;28;20209;-66
2023/01/02 02:13:12;;;;;;;5.70;3.20;;;11.00;99.90;;;;;;5029937;28;20701;-66
2023/01/02 02:15:47;;;;;;;5.30;3.00;;;11.00;99.90;;;;;;5036667;28;20626;-67
2023/01/02 02:18:27;;;;;;;6.05;3.30;;;11.00;99.90;;;;;;5018866;28;20200;-66
2023/01/02 02:21:07;;;;;;;4.35;3.25;;;11.00;99.90;;;;;;5039677;28;20290;-66
2023/01/02 02:24:12;;;;;;;7.65;3.10;;;11.00;99.90;;;;;;5035244;28;20212;-66
2023/01/02 02:26:55;;;;;;;8.77;2.90;;;11.00;99.90;;;;;;4989988;28;20498;-67
2023/01/02 02:30:01;;;;;;;3.85;3.00;;;11.00;99.90;;;;;;5046170;28;20201;-66
2023/01/02 02:32:46;;;;;;;4.45;2.97;;;11.00;99.90;;;;;;5031964;28;20295;-66
2023/01/02 02:35:20;;;;;;;6.75;3.63;;;11.10;99.90;;;;;;5043311;28;20203;-67
2023/01/02 02:37:55;;;;;;;8.55;3.55;;;11.10;99.90;;;;;;5043148;28;21023;-67
2023/01/02 02:40:30;;;;;;;7.63;3.28;;;11.10;99.90;;;;;;5039672;28;20769;-66
2023/01/02 02:43:06;;;;;;;5.60;3.13;;;11.10;99.90;;;;;;4998821;28;20223;-66
2023/01/02 02:45:47;;;;;;;8.90;3.20;;;11.10;99.90;;;;;;5036239;28;20197;-66
2023/01/02 02:48:20;;;;;;;6.95;3.33;;;11.10;99.90;;;;;;5029245;28;20231;-67
2023/01/02 02:50:52;;;;;;;3.70;3.33;;;11.10;99.90;;;;;;5033037;28;20327;-66
2023/01/02 02:53:23;;;;;;;5.60;2.95;;;11.10;99.90;;;;;;5046859;28;20193;-66
2023/01/02 02:55:52;;;;;;;9.38;3.00;;;11.20;99.90;;;;;;5041208;28;20609;-66
2023/01/02 02:58:22;;;;;;;7.90;3.40;;;11.10;99.90;;;;;;5000545;28;20228;-65
2023/01/02 03:00:50;;;;;;;9.05;3.53;;;11.20;99.90;;;;;;5037747;28;20208;-66
2023/01/02 03:03:18;;;;;;;6.93;3.75;;;11.10;99.90;;;;;;5044664;28;20201;-67
2023/01/02 03:06:00;;;;;;;8.23;3.70;;;11.20;99.90;;;;;;5023858;28;20427;-66
2023/01/02 03:08:36;;;;;;;7.45;3.78;;;11.20;99.90;;;;;;5010700;28;20221;-66
2023/01/02 03:11:03;;;;;;;6.80;3.85;;;11.20;99.90;;;;;;5025503;28;20942;-67
2023/01/02 03:13:39;;;;;;;11.18;3.97;;;11.20;99.90;;;;;;4987229;28;20813;-67
2023/01/02 03:16:12;;;;;;;8.80;3.38;;;11.20;99.90;;;;;;5024544;28;20228;-67
2023/01/02 03:18:49;;;;;;;6.38;3.20;;;11.30;99.90;;;;;;5018994;28;20227;-67
2023/01/02 03:21:22;;;;;;;12.20;4.15;;;11.20;99.90;;;;;;5014098;28;20204;-66
2023/01/02 03:23:49;;;;;;;7.72;3.80;;;11.30;99.90;;;;;;5038566;28;20212;-66
2023/01/02 03:26:25;;;;;;;8.95;4.50;;;11.30;99.90;;;;;;5038491;28;20228;-66
2023/01/02 03:28:56;;;;;;;6.90;3.50;;;11.30;99.90;;;;;;4967963;28;20247;-67
2023/01/02 03:31:28;;;;;;;6.90;3.92;;;11.30;99.90;;;;;;5044006;28;20216;-65
2023/01/02 03:33:58;;;;;;;7.68;3.60;;;11.40;99.90;;;;;;5011592;28;20254;-66
2023/01/02 03:36:29;;;;;;;10.40;3.70;;;11.40;99.90;;;;;;5029805;28;20212;-66
2023/01/02 03:39:00;;;;;;;8.68;4.47;;;11.40;99.90;;;;;;5038029;28;20251;-66
2023/01/02 03:41:33;;;;;;;16.63;4.22;;;11.40;99.90;;;;;;5043101;28;20232;-66
2023/01/02 03:44:01;;;;;;;6.13;3.70;;;11.50;99.90;;;;;;4988172;28;20225;-67
2023/01/02 03:46:34;;;;;;;9.00;4.55;;;11.50;99.90;;;;;;5041246;28;20232;-66
2023/01/02 03:49:06;;;;;;;7.90;3.88;;;11.50;99.90;;;;;;5016286;28;20661;-67
2023/01/02 03:51:34;;;;;;;8.55;3.60;;;11.50;99.90;;;;;;5028124;28;20740;-67
2023/01/02 03:54:02;;;;;;;7.95;3.80;;;11.60;99.90;;;;;;5037870;28;20235;-66
2023/01/02 03:56:37;;;;;;;5.43;3.63;;;11.60;99.90;;;;;;5018035;28;20240;-66
2023/01/02 03:59:09;;;;;;;10.25;4.13;;;11.60;99.90;;;;;;5002759;28;20938;-67
2023/01/02 04:01:44;;;;;;;8.82;4.13;;;11.60;99.90;;;;;;5016396;28;20224;-66
2023/01/02 04:04:17;;;;;;;10.38;3.78;;;11.60;99.90;;;;;;5022448;28;20219;-66
2023/01/02 04:06:49;;;;;;;10.32;4.00;;;11.70;99.90;;;;;;5019121;28;20232;-66
2023/01/02 04:09:20;;;;;;;6.47;4.40;;;11.60;99.90;;;;;;5033860;28;20224;-67
2023/01/02 04:11:53;;;;;;;7.60;3.80;;;11.70;99.90;;;;;;5044825;28;20217;-66
2023/01/02 04:14:28;;;;;;;8.57;4.28;;;11.70;99.90;;;;;;5046190;28;20429;-67
2023/01/02 04:16:58;;;;;;;6.57;3.72;;;11.60;99.90;;;;;;5010462;28;20886;-66
2023/01/02 04:19:29;;;;;;;7.22;4.20;;;11.70;99.90;;;;;;5043572;28;20236;-66
2023/01/02 04:22:01;;;;;;;8.77;4.07;;;11.70;99.90;;;;;;5023586;28;20205;-66
2023/01/02 04:24:31;;;;;;;8.25;3.63;;;11.70;99.90;;;;;;5046358;28;20200;-68
2023/01/02 04:27:03;;;;;;;9.48;3.90;;;11.70;99.90;;;;;;5036591;28;20563;-67
2023/01/02 04:29:31;;;;;;;7.55;3.55;;;11.70;99.90;;;;;;5047699;28;20196;-66
2023/01/02 04:32:06;;;;;;;11.10;4.32;;;11.70;99.90;;;;;;5009031;28;20478;-66
2023/01/02 04:34:35;;;;;;;14.80;4.03;;;11.70;99.90;;;;;;5047510;28;20184;-67
2023/01/02 04:37:02;;;;;;;9.35;4.15;;;11.70;99.90;;;;;;5033115;28;20200;-67
2023/01/02 04:39:29;;;;;;;6.85;3.50;;;11.80;99.90;;;;;;5046014;28;20208;-67
2023/01/02 04:41:56;;;;;;;6.75;3.70;;;11.80;99.90;;;;;;5044108;28;20198;-66
2023/01/02 04:44:22;;;;;;;7.00;3.67;;;11.80;99.90;;;;;;5044323;28;20423;-66
2023/01/02 04:46:49;;;;;;;8.65;3.80;;;11.90;99.90;;;;;;5012691;28;20986;-66
2023/01/02 04:49:18;;;;;;;9.07;3.47;;;11.90;99.90;;;;;;5038379;28;20408;-66
2023/01/02 04:51:45;;;;;;;11.15;4.18;;;11.90;99.90;;;;;;5040768;28;20206;-65
2023/01/02 04:54:12;;;;;;;7.00;3.60;;;11.90;99.90;;;;;;5030917;28;20224;-66
2023/01/02 04:56:39;;;;;;;4.65;3.15;;;11.90;99.90;;;;;;5046093;28;20204;-67
2023/01/02 04:59:05;;;;;;;9.15;4.03;;;11.90;99.90;;;;;;5038894;28;20193;-66
2023/01/02 05:01:32;;;;;;;7.57;4.07;;;11.90;99.90;;;;;;4998807;28;20405;-67
2023/01/02 05:03:59;;;;;;;11.65;4.10;;;12.00;99.90;;;;;;5039618;28;20205;-66
2023/01/02 05:06:27;;;;;;;11.55;4.03;;;12.00;99.90;;;;;;5044957;28;20573;-66
2023/01/02 05:08:54;;;;;;;9.88;4.20;;;12.00;99.90;;;;;;5029896;28;20821;-66
2023/01/02 05:11:21;;;;;;;10.07;4.00;;;12.00;99.90;;;;;;5048298;28;21474;-67
2023/01/02 05:13:48;;;;;;;8.68;4.50;;;11.90;99.90;;;;;;5039558;28;20196;-66
2023/01/02 05:16:15;;;;;;;12.70;4.03;;;12.00;99.90;;;;;;5040981;28;20601;-66
2023/01/02 05:18:42;;;;;;;6.93;4.22;;;12.00;99.90;;;;;;5010795;28;20236;-67
2023/01/02 05:23:47;;;;;;;5.82;4.10;;;12.00;99.90;;;;;;5042888;28;20769;-66
2023/01/02 05:24:01;;;;;;;9.45;3.65;;;12.00;99.90;;;;;;5025674;28;20309;-66
2023/01/02 05:26:31;;;;;;;8.60;4.80;;;12.00;99.90;;;;;;5047659;28;20225;-67
2023/01/02 05:28:58;;;;;;;10.52;4.55;;;12.00;99.90;;;;;;5034773;28;20212;-66
2023/01/02 05:31:26;;;;;;;6.38;3.78;;;12.20;99.90;;;;;;5048890;28;20231;-66
2023/01/02 05:33:54;;;;;;;9.48;4.55;;;12.00;99.90;;;;;;5008920;28;20204;-66
2023/01/02 05:36:21;;;;;;;5.70;3.95;;;12.10;99.90;;;;;;5047112;28;20748;-67
2023/01/02 05:38:48;;;;;;;8.15;3.55;;;12.10;99.90;;;;;;5026766;28;20197;-66
2023/01/02 05:41:17;;;;;;;12.50;3.97;;;12.10;99.90;;;;;;5037860;28;20211;-66
2023/01/02 05:43:44;;;;;;;7.68;3.75;;;12.10;99.90;;;;;;5042003;28;20690;-67
2023/01/02 05:46:13;;;;;;;5.47;3.97;;;12.10;99.90;;;;;;5044610;28;20616;-66
2023/01/02 05:48:40;;;;;;;9.27;3.40;;;12.20;99.90;;;;;;5014538;28;20230;-67
2023/01/02 05:51:09;;;;;;;6.60;3.63;;;12.20;99.90;;;;;;5040088;28;20216;-66
2023/01/02 05:53:36;;;;;;;8.98;3.40;;;12.20;99.90;;;;;;5047734;28;20204;-67
2023/01/02 05:56:08;;;;;;;3.95;3.00;;;12.20;99.90;;;;;;5025630;28;20201;-67
2023/01/02 05:58:38;;;;;;;8.45;3.42;;;12.20;99.90;;;;;;5041294;28;20208;-67
2023/01/02 06:01:06;;;;;;;7.78;3.25;;;12.10;99.90;;;;;;5022195;28;20204;-67
2023/01/02 06:03:33;;;;;;;10.88;4.07;;;12.20;99.90;;;;;;5044056;28;20207;-67
2023/01/02 06:06:05;;;;;;;4.93;3.50;;;12.20;99.90;;;;;;4999030;28;20209;-67
2023/01/02 06:08:32;;;;;;;4.18;3.45;;;12.20;99.90;;;;;;5042300;28;20607;-67
2023/01/02 06:10:59;;;;;;;8.38;3.72;;;12.20;99.90;;;;;;5026223;28;20204;-67
2023/01/02 06:13:26;;;;;;;8.23;3.95;;;12.20;99.90;;;;;;5017625;28;22662;-67
2023/01/02 06:15:55;;;;;;;5.78;3.97;;;12.20;99.90;;;;;;5037402;28;20193;-66
2023/01/02 06:18:23;;;;;;;7.22;4.10;;;12.30;99.90;;;;;;5027127;28;20403;-67
2023/01/02 06:20:49;;;;;;;11.38;5.00;;;12.20;99.90;;;;;;5010603;28;20603;-66
2023/01/02 06:23:16;;;;;;;6.45;4.93;;;12.20;99.90;;;;;;5033039;28;20209;-67
2023/01/02 06:25:43;;;;;;;7.57;4.97;;;12.30;99.90;;;;;;5018038;28;20223;-67
2023/01/02 06:28:10;;;;;;;6.75;4.90;;;12.20;99.90;;;;;;5032645;28;20237;-66
2023/01/02 06:30:37;;;;;;;10.52;5.15;;;12.20;99.90;;;;;;5036150;28;20198;-67
2023/01/02 06:33:05;;;;;;;10.50;5.20;;;12.20;99.90;;;;;;5025334;28;20322;-67
2023/01/02 06:35:32;;;;;;;7.97;5.55;;;12.30;99.90;;;;;;5041231;28;20220;-67
2023/01/02 06:37:59;;;;;;;8.90;5.30;;;12.30;99.90;;;;;;5009767;28;20866;-66
2023/01/02 06:40:26;;;;;;;15.00;5.53;;;12.30;99.90;;;;;;5029799;28;20572;-67
2023/01/02 06:42:53;;;;;;;9.57;5.00;;;12.20;99.90;;;;;;5020640;28;20205;-67
2023/01/02 06:45:20;;;;;;;7.85;5.20;;;12.30;99.90;;;;;;5015310;28;20196;-66
2023/01/02 06:47:47;;;;;;;11.38;5.05;;;12.30;99.90;;;;;;5041203;28;20760;-67
2023/01/02 06:50:15;;;;;;;7.35;5.03;;;12.30;99.90;;;;;;5039823;28;20201;-66
2023/01/02 06:52:42;;;;;;;9.10;5.43;;;12.30;99.90;;;;;;4999288;28;20219;-67
2023/01/02 06:55:09;;;;;;;8.80;5.38;;;12.30;99.90;;;;;;5021669;28;20693;-66
2023/01/02 06:57:36;;;;;;;8.25;5.15;;;12.30;99.90;;;;;;5022403;28;20204;-67
2023/01/02 07:00:03;;;;;;;7.40;5.68;;;12.30;99.90;;;;;;5032136;28;20405;-67
2023/01/02 07:02:30;;;;;;;14.05;5.22;;;12.30;99.90;;;;;;5039584;28;20301;-67
2023/01/02 07:04:57;;;;;;;5.78;4.88;;;12.30;99.90;;;;;;5042206;28;20193;-67
2023/01/02 07:07:25;;;;;;;10.25;4.97;;;12.30;99.90;;;;;;4992058;28;20894;-67
2023/01/02 07:09:52;;;;;;;8.35;4.53;;;12.30;99.90;;;;;;5033970;28;20980;-66
2023/01/02 07:12:19;;;;;;;10.35;4.90;;;12.30;99.90;;;;;;5022484;28;20691;-67
2023/01/02 07:14:54;;;;;;;12.00;5.38;;;12.30;99.90;;;;;;5063981;27;20603;-66
2023/01/02 07:17:21;;;;;;;12.98;5.25;;;12.30;99.90;;;;;;5039110;28;20192;-67
2023/01/02 07:19:47;;;;;;;10.60;5.03;;;12.30;99.90;;;;;;5054828;28;20204;-66
2023/01/02 07:22:14;;;;;;;9.65;5.32;;;12.30;99.90;;;;;;5033020;28;20207;-67
2023/01/02 07:24:41;;;;;;;7.28;4.80;;;12.30;99.90;;;;;;5044955;28;20201;-69
2023/01/02 07:27:08;;;;;;;8.35;4.82;;;12.30;99.90;;;;;;5046348;28;20212;-67
2023/01/02 07:29:35;;;;;;;9.60;5.40;;;12.40;99.90;;;;;;5033785;28;20208;-67
2023/01/02 07:32:03;;;;;;;8.95;4.50;;;12.40;99.90;;;;;;5049262;28;20205;-66
2023/01/02 07:34:30;;;;;;;7.82;4.78;;;12.40;99.90;;;;;;5052656;28;20699;-65
2023/01/02 07:36:57;;;;;;;6.43;4.55;;;12.40;99.90;;;;;;5056118;28;20566;-67
2023/01/02 07:39:24;;;;;;;7.00;4.13;;;12.40;99.90;;;;;;5020008;28;20205;-66
2023/01/02 07:41:51;;;;;;;6.40;4.15;;;12.30;99.90;;;;;;5049186;28;20686;-66
2023/01/02 07:44:18;;;;;;;8.68;4.85;;;12.30;99.90;;;;;;5037451;28;20196;-66
2023/01/02 07:46:45;;;;;;;8.40;3.90;;;12.40;99.90;;;;;;5040837;28;20205;-66
2023/01/02 07:49:13;;;;;;;6.03;4.18;;;12.40;99.90;;;;;;5053417;28;20200;-67
2023/01/02 07:51:40;;;;;;;5.95;4.03;;;12.40;99.90;;;;;;5041734;28;20204;-67
2023/01/02 07:54:07;;;;;;;6.32;4.07;;;12.40;99.90;;;;;;5046435;28;20595;-65
2023/01/02 07:56:34;;;;;;;5.57;4.15;;;12.40;99.90;;;;;;5020727;28;20205;-67
2023/01/02 07:59:01;;;;;;;7.68;3.85;;;12.40;99.90;;;;;;5032383;28;20591;-67
2023/01/02 08:01:28;;;;;;;7.22;3.80;;;12.40;99.90;;;;;;5009789;28;20657;-67
2023/01/02 08:03:54;;;;;;;4.03;3.63;;;12.40;99.90;;;;;;5043553;28;20211;-67
2023/01/02 08:06:23;;;;;;;9.98;4.10;;;12.50;99.90;;;;;;5047964;28;20208;-67
2023/01/02 08:08:49;;;;;;;5.45;3.60;;;12.40;99.90;;;;;;5049948;28;20316;-67
2023/01/02 08:11:18;;;;;;;40.67;7.78;;;12.40;99.90;;;;;;5018504;28;20204;-68
2023/01/02 08:13:45;;;;;;;10.20;3.50;;;12.40;99.90;;;;;;5033224;28;20240;-67
2023/01/02 08:16:13;;;;;;;9.15;4.15;;;12.40;99.90;;;;;;5030172;28;20204;-67
2023/01/02 08:18:40;;;;;;;6.75;3.38;;;12.40;99.90;;;;;;5028418;28;20209;-67
2023/01/02 08:21:07;;;;;;;4.60;4.05;;;12.30;99.90;;;;;;5050171;28;20200;-67
2023/01/02 08:23:36;;;;;;;7.45;3.80;;;12.30;99.90;;;;;;5048489;28;20209;-67
2023/01/02 08:26:05;;;;;;;9.85;4.47;;;12.40;99.90;;;;;;5003682;28;20205;-68
2023/01/02 08:28:33;;;;;;;6.75;3.67;;;12.40;99.90;;;;;;5020114;28;20202;-67
2023/01/02 08:31:00;;;;;;;6.03;3.55;;;12.40;99.90;;;;;;5018298;28;20209;-67
2023/01/02 08:33:27;;;;;;;5.60;3.72;;;12.40;99.90;;;;;;5020027;28;20224;-68
2023/01/02 08:35:55;;;;;;;4.57;3.20;;;12.40;99.90;;;;;;5042536;28;20193;-67
2023/01/02 08:38:22;;;;;;;6.43;3.28;;;12.40;99.90;;;;;;5038569;28;20236;-67
2023/01/02 08:40:50;;;;;;;6.43;3.25;;;12.40;99.90;;;;;;5029458;28;20201;-66
2023/01/02 08:43:17;;;;;;;4.88;3.30;;;12.40;99.90;;;;;;4986517;28;20710;-67
2023/01/02 08:45:44;;;;;;;5.72;3.78;;;12.40;99.90;;;;;;5027707;28;20212;-67
2023/01/02 08:48:11;;;;;;;7.47;3.28;;;12.40;99.90;;;;;;5017045;28;20205;-67
2023/01/02 08:50:38;;;;;;;8.77;3.10;;;12.40;99.90;;;;;;5032495;28;20189;-67
2023/01/02 08:53:05;;;;;;;6.22;3.45;;;12.40;99.90;;;;;;5028288;28;20978;-67
2023/01/02 08:55:31;;;;;;;5.38;3.03;;;12.50;99.90;;;;;;5034770;28;20955;-67
2023/01/02 08:58:00;;;;;;;6.55;3.47;;;12.50;99.90;;;;;;5006270;28;20226;-67
2023/01/02 09:00:26;;;;;;;5.40;3.38;;;12.40;99.90;;;;;;5010799;28;20225;-67
2023/01/02 09:02:53;;;;;;;5.35;3.50;;;12.40;99.90;;;;;;5013598;28;20860;-67
2023/01/02 09:05:20;;;;;;;6.55;3.13;;;12.50;99.90;;;;;;5034845;28;20208;-66
2023/01/02 09:07:47;;;;;;;6.97;3.42;;;12.40;99.90;;;;;;5037300;28;20216;-67
2023/01/02 09:10:14;;;;;;;5.35;2.88;;;12.50;99.90;;;;;;5026884;28;20210;-67
2023/01/02 09:12:41;;;;;;;5.68;3.25;;;12.50;99.90;;;;;;5039894;28;20201;-66
2023/01/02 09:15:11;;;;;;;7.10;4.07;;;12.50;99.90;;;;;;4983045;28;20253;-68
2023/01/02 09:17:38;;;;;;;11.20;3.80;;;12.50;99.90;;;;;;5015372;28;20204;-68
2023/01/02 09:20:06;;;;;;;5.57;3.78;;;12.50;99.90;;;;;;5036025;28;20193;-67
2023/01/02 09:22:32;;;;;;;5.82;3.83;;;12.50;99.90;;;;;;5030616;28;20227;-67
2023/01/02 09:24:59;;;;;;;6.05;3.90;;;12.50;99.90;;;;;;5021384;28;20554;-68
2023/01/02 09:27:26;;;;;;;7.93;3.90;;;12.50;99.90;;;;;;5032541;28;20663;-68
2023/01/02 09:29:53;;;;;;;5.28;3.58;;;12.50;99.90;;;;;;4989823;28;20223;-68
2023/01/02 09:32:21;;;;;;;11.40;3.60;;;12.50;99.90;;;;;;5027288;28;20577;-68
2023/01/02 09:34:49;;;;;;;4.25;3.25;;;12.50;99.90;;;;;;5013731;28;20221;-67
2023/01/02 09:37:16;;;;;;;5.40;3.50;;;12.40;99.90;;;;;;5029395;28;20211;-67
2023/01/02 09:39:43;;;;;;;7.85;4.00;;;12.40;99.90;;;;;;5022482;28;20225;-68
2023/01/02 09:42:14;;;;;;;6.90;2.97;;;12.40;99.90;;;;;;5032885;28;20221;-67
2023/01/02 09:44:44;;;;;;;4.88;3.28;;;12.40;99.90;;;;;;5002045;28;20201;-68
2023/01/02 09:47:15;;;;;;;4.85;2.65;;;12.40;99.90;;;;;;5016202;28;20217;-68
2023/01/02 09:49:46;;;;;;;3.80;2.50;;;12.40;99.90;;;;;;5020232;28;21140;-68
2023/01/02 09:52:17;;;;;;;4.80;1.90;;;12.40;99.90;;;;;;5036668;28;20198;-67
2023/01/02 09:54:44;;;;;;;2.25;1.83;;;12.40;99.90;;;;;;5023501;28;20230;-68
2023/01/02 09:57:34;;;;;;;1.58;1.48;;;12.50;99.90;;;;;;5028934;28;20209;-68
2023/01/02 10:00:05;;;;;;;1.63;1.40;;;12.30;99.90;;;;;;5038707;28;20212;-68
2023/01/02 10:02:50;;;;;;;2.75;1.20;;;12.20;99.90;;;;;;4981398;28;21757;-67
2023/01/02 10:05:53;;;;;;;1.05;0.98;;;12.00;99.90;;;;;;5024652;28;20924;-68
2023/01/02 10:08:28;;;;;;;0.80;0.80;;;11.80;99.90;;;;;;5036258;28;20681;-67
2023/01/02 10:11:02;;;;;;;0.90;0.90;;;11.70;99.90;;;;;;5026807;28;20207;-67
2023/01/02 10:13:37;;;;;;;0.85;0.75;;;11.60;99.90;;;;;;5036822;28;20279;-66
2023/01/02 10:16:07;;;;;;;3.78;1.27;;;11.50;99.90;;;;;;4993844;28;20209;-67
2023/01/02 10:18:39;;;;;;;1.13;0.80;;;11.40;99.90;;;;;;5020744;28;20703;-67
2023/01/02 10:21:11;;;;;;;0.70;0.70;;;11.20;99.90;;;;;;5031489;28;20216;-68
2023/01/02 10:23:41;;;;;;;0.80;0.80;;;11.10;99.90;;;;;;5030137;28;20216;-67
2023/01/02 10:26:15;;;;;;;0.70;0.70;;;11.00;99.90;;;;;;5030432;28;20278;-68
2023/01/02 10:28:49;;;;;;;0.95;0.85;;;10.90;99.90;;;;;;5028258;28;20901;-68
2023/01/02 10:31:24;;;;;;;0.95;0.88;;;10.90;99.90;;;;;;5028290;28;20248;-67
2023/01/02 10:33:55;;;;;;;1.25;1.02;;;10.90;99.90;;;;;;4984867;28;21023;-67
2023/01/02 10:36:27;;;;;;;1.55;0.93;;;10.80;99.90;;;;;;5022888;28;20230;-66
2023/01/02 10:38:57;;;;;;;0.77;0.77;;;10.70;99.90;;;;;;5017484;28;20429;-66
2023/01/02 10:41:25;;;;;;;0.75;0.75;;;10.70;99.90;;;;;;5032159;28;20197;-66
2023/01/02 10:43:55;;;;;;;0.90;0.77;;;10.60;99.90;;;;;;5028949;28;20263;-66
2023/01/02 10:46:22;;;;;;;1.02;0.88;;;10.50;99.90;;;;;;5030118;28;20216;-66
2023/01/02 10:48:50;;;;;;;0.68;0.68;;;10.50;99.90;;;;;;4982846;28;21106;-67
2023/01/02 10:51:18;;;;;;;0.80;0.80;;;10.40;99.90;;;;;;5023255;28;20452;-67
2023/01/02 10:54:00;;;;;;;0.60;0.60;;;10.40;99.90;;;;;;5028652;28;20848;-67
2023/01/02 10:56:30;;;;;;;0.88;0.85;;;10.30;99.90;;;;;;5039632;28;20201;-67
2023/01/02 10:58:57;;;;;;;0.80;0.80;;;10.30;99.90;;;;;;4995426;28;20231;-65
2023/01/02 11:01:24;;;;;;;1.13;0.73;;;10.20;99.90;;;;;;5014021;28;20204;-66
2023/01/02 11:04:10;;;;;;;0.80;0.80;;;10.10;99.90;;;;;;4980057;28;20231;-67
2023/01/02 11:06:50;;;;;;;0.95;0.63;;;10.00;99.90;;;;;;5016732;28;20201;-66
2023/01/02 11:09:21;;;;;;;0.57;0.52;;;10.00;99.90;;;;;;5039110;28;20196;-67
2023/01/02 11:11:51;;;;;;;0.50;0.50;;;9.90;99.90;;;;;;5027583;28;20822;-67
2023/01/02 11:14:21;;;;;;;0.55;0.55;;;9.90;99.90;;;;;;5030921;28;20236;-68
2023/01/02 11:16:49;;;;;;;1.83;0.50;;;9.90;99.90;;;;;;5013434;28;20213;-67
2023/01/02 11:19:19;;;;;;;0.65;0.65;;;9.80;99.90;;;;;;4996498;28;20221;-67
2023/01/02 11:21:47;;;;;;;0.50;0.50;;;9.80;99.90;;;;;;5017649;28;20196;-67
2023/01/02 11:24:18;;;;;;;0.68;0.60;;;9.80;99.90;;;;;;5033414;28;20458;-67
2023/01/02 11:26:49;;;;;;;0.30;0.30;;;9.80;99.90;;;;;;5027525;28;20201;-68
2023/01/02 11:29:21;;;;;;;4.13;0.50;;;9.80;99.90;;;;;;5034543;28;20201;-67
2023/01/02 11:31:51;;;;;;;0.85;0.47;;;9.90;99.90;;;;;;5030145;28;20225;-66
2023/01/02 11:34:20;;;;;;;0.50;0.50;;;9.90;99.90;;;;;;5005693;28;20220;-67
2023/01/02 11:37:01;;;;;;;0.73;0.70;;;10.00;99.90;;;;;;5015503;28;20225;-66
2023/01/02 11:39:29;;;;;;;1.48;0.75;;;10.00;99.90;;;;;;5020643;28;20224;-68
2023/01/02 11:44:54;;;;;;;0.90;0.68;;;10.00;99.90;;;;;;5013198;28;20310;-67
2023/01/02 11:47:30;;;;;;;1.02;0.73;;;10.00;99.90;;;;;;5020552;28;20197;-66
2023/01/02 11:49:58;;;;;;;0.95;0.77;;;10.00;99.90;;;;;;4989664;28;20212;-66
2023/01/02 11:52:30;;;;;;;0.70;0.70;;;10.00;99.90;;;;;;5010848;28;20205;-66
2023/01/02 11:55:01;;;;;;;1.02;0.93;;;9.90;99.90;;;;;;5025001;28;20230;-66
2023/01/02 11:57:35;;;;;;;1.52;0.88;;;9.80;99.90;;;;;;5021765;28;20552;-67
2023/01/02 12:00:10;;;;;;;2.63;0.90;;;9.80;99.90;;;;;;5029955;28;20220;-68
2023/01/02 12:02:40;;;;;;;1.02;0.80;;;9.90;99.90;;;;;;5025827;28;20204;-68
2023/01/02 12:05:11;;;;;;;1.02;0.65;;;9.90;99.90;;;;;;4993872;28;20618;-66
2023/01/02 12:07:44;;;;;;;1.13;1.00;;;9.90;99.90;;;;;;5028973;28;20196;-66
2023/01/02 12:10:27;;;;;;;2.72;0.90;;;9.90;99.90;;;;;;5031488;28;20201;-65
2023/01/02 12:13:08;;;;;;;2.28;0.90;;;10.00;99.90;;;;;;5032231;28;20290;-67
2023/01/02 12:15:52;;;;;;;1.67;1.10;;;10.00;99.90;;;;;;5028704;28;20243;-66
2023/01/02 12:18:31;;;;;;;2.10;0.88;;;10.00;99.90;;;;;;5032007;28;20212;-66
2023/01/02 12:21:05;;;;;;;3.85;0.93;;;10.00;99.90;;;;;;5011722;28;20208;-67
2023/01/02 12:23:52;;;;;;;1.33;0.93;;;9.90;99.90;;;;;;4990904;28;20233;-68
2023/01/02 12:26:23;;;;;;;1.77;1.30;;;9.90;99.90;;;;;;5045240;28;20251;-67
2023/01/02 12:29:44;;;;;;;1.45;1.00;;;10.00;99.90;;;;;;5033017;28;20235;-66
2023/01/02 12:32:39;;;;;;;1.23;1.00;;;10.00;99.90;;;;;;4995732;28;20357;-66
2023/01/02 12:35:19;;;;;;;1.00;0.82;;;10.00;99.90;;;;;;5043462;28;20336;-66
2023/01/02 12:37:52;;;;;;;2.17;0.98;;;10.00;99.90;;;;;;5002208;28;20212;-67
2023/01/02 12:40:34;;;;;;;3.25;1.30;;;10.00;99.90;;;;;;5024078;28;21126;-68
2023/01/02 12:43:27;;;;;;;2.38;1.08;;;10.00;99.90;;;;;;5014408;28;20224;-67
2023/01/02 12:46:08;;;;;;;1.60;1.05;;;10.00;99.90;;;;;;5025327;28;20666;-67
2023/01/02 12:48:51;;;;;;;2.03;1.10;;;10.00;99.90;;;;;;5031411;28;20198;-68
2023/01/02 12:51:24;;;;;;;1.20;0.95;;;10.00;99.90;;;;;;5005132;28;20209;-68
2023/01/02 12:54:05;;;;;;;1.52;1.02;;;10.00;99.90;;;;;;5016166;28;20244;-67
2023/01/02 12:56:40;;;;;;;1.75;1.00;;;9.90;99.90;;;;;;5032602;28;20225;-68
2023/01/02 12:59:26;;;;;;;2.38;1.63;;;9.80;99.90;;;;;;5029267;28;20216;-66
2023/01/02 13:02:02;;;;;;;2.78;1.38;;;9.80;99.90;;;;;;5034241;28;20205;-67
2023/01/02 13:04:32;;;;;;;3.75;1.10;;;9.80;99.90;;;;;;5016389;28;20235;-67
2023/01/02 13:07:03;;;;;;;0.88;0.82;;;9.80;99.90;;;;;;4996203;28;20205;-67